sensor_id;sensor_type;location;lat;lon;timestamp;pressure;altitude;pressure_sealevel;temperature;humidity
77325;BME280;66387;53.440;10.390;2023-04-25T00:02:24;99772.06;;;7.57;88.50
77325;BME280;66387;53.440;10.390;2023-04-25T00:04:49;99772.91;;;7.58;89.24
77325;BME280;66387;53.440;10.390;2023-04-25T00:07:15;99778.91;;;7.60;88.75
77325;BME280;66387;53.440;10.390;2023-04-25T00:09:41;99778.91;;;7.61;88.06
77325;BME280;66387;53.440;10.390;2023-04-25T00:12:07;99775.41;;;7.64;87.98
77325;BME280;66387;53.440;10.390;2023-04-25T00:14:32;99782.34;;;7.59;88.74
77325;BME280;66387;53.440;10.390;2023-04-25T00:16:59;99779.88;;;7.51;88.58
77325;BME280;66387;53.440;10.390;2023-04-25T00:19:24;99788.38;;;7.58;88.83
77325;BME280;66387;53.440;10.390;2023-04-25T00:21:52;99784.91;;;7.62;89.07
77325;BME280;66387;53.440;10.390;2023-04-25T00:24:19;99778.06;;;7.58;89.24
77325;BME280;66387;53.440;10.390;2023-04-25T00:26:44;99784.22;;;7.49;89.75
77325;BME280;66387;53.440;10.390;2023-04-25T00:29:09;99782.41;;;7.56;89.28
77325;BME280;66387;53.440;10.390;2023-04-25T00:31:35;99779.03;;;7.51;88.77
77325;BME280;66387;53.440;10.390;2023-04-25T00:34:00;99773.78;;;7.57;89.01
77325;BME280;66387;53.440;10.390;2023-04-25T00:36:25;99777.94;;;7.65;89.25
77325;BME280;66387;53.440;10.390;2023-04-25T00:38:53;99783.16;;;7.62;89.16
77325;BME280;66387;53.440;10.390;2023-04-25T00:41:19;99779.59;;;7.71;88.75
77325;BME280;66387;53.440;10.390;2023-04-25T00:43:45;99780.69;;;7.55;89.03
77325;BME280;66387;53.440;10.390;2023-04-25T00:46:11;99790.25;;;7.48;90.96
77325;BME280;66387;53.440;10.390;2023-04-25T00:48:36;99792.88;;;7.45;90.44
77325;BME280;66387;53.440;10.390;2023-04-25T00:51:01;99796.13;;;7.58;91.18
77325;BME280;66387;53.440;10.390;2023-04-25T00:53:27;99797.28;;;7.38;92.68
77325;BME280;66387;53.440;10.390;2023-04-25T00:55:53;99799.97;;;7.31;93.12
77325;BME280;66387;53.440;10.390;2023-04-25T00:58:20;99791.47;;;7.24;92.25
77325;BME280;66387;53.440;10.390;2023-04-25T01:00:47;99811.19;;;7.28;92.95
77325;BME280;66387;53.440;10.390;2023-04-25T01:03:16;99815.31;;;7.40;91.81
77325;BME280;66387;53.440;10.390;2023-04-25T01:05:42;99808.63;;;7.25;92.37
77325;BME280;66387;53.440;10.390;2023-04-25T01:08:08;99793.31;;;7.13;92.48
77325;BME280;66387;53.440;10.390;2023-04-25T01:10:34;99811.22;;;7.25;92.48
77325;BME280;66387;53.440;10.390;2023-04-25T01:12:59;99806.03;;;7.28;92.70
77325;BME280;66387;53.440;10.390;2023-04-25T01:15:24;99807.81;;;7.22;91.79
77325;BME280;66387;53.440;10.390;2023-04-25T01:17:50;99803.69;;;7.10;91.96
77325;BME280;66387;53.440;10.390;2023-04-25T01:20:16;99804.53;;;7.09;92.54
77325;BME280;66387;53.440;10.390;2023-04-25T01:22:42;99802.75;;;7.16;92.56
77325;BME280;66387;53.440;10.390;2023-04-25T01:25:08;99807.03;;;7.17;91.44
77325;BME280;66387;53.440;10.390;2023-04-25T01:27:35;99818.41;;;7.01;91.02
77325;BME280;66387;53.440;10.390;2023-04-25T01:30:01;99807.25;;;6.97;88.10
77325;BME280;66387;53.440;10.390;2023-04-25T01:32:26;99802.13;;;6.94;87.73
77325;BME280;66387;53.440;10.390;2023-04-25T01:34:52;99805.66;;;6.85;87.00
77325;BME280;66387;53.440;10.390;2023-04-25T01:37:17;99806.34;;;7.03;87.74
77325;BME280;66387;53.440;10.390;2023-04-25T01:39:43;99806.47;;;6.90;88.06
77325;BME280;66387;53.440;10.390;2023-04-25T01:42:08;99820.19;;;6.96;88.87
77325;BME280;66387;53.440;10.390;2023-04-25T01:44:34;99817.41;;;7.12;87.93
77325;BME280;66387;53.440;10.390;2023-04-25T01:46:59;99817.53;;;7.02;87.27
77325;BME280;66387;53.440;10.390;2023-04-25T01:49:24;99819.25;;;7.01;86.90
77325;BME280;66387;53.440;10.390;2023-04-25T01:51:49;99820.13;;;7.00;86.79
77325;BME280;66387;53.440;10.390;2023-04-25T01:54:15;99824.38;;;7.04;86.64
77325;BME280;66387;53.440;10.390;2023-04-25T01:56:40;99820.06;;;7.03;87.30
77325;BME280;66387;53.440;10.390;2023-04-25T01:59:06;99828.69;;;7.04;86.00
77325;BME280;66387;53.440;10.390;2023-04-25T02:01:32;99844.31;;;6.92;85.69
77325;BME280;66387;53.440;10.390;2023-04-25T02:03:57;99834.16;;;6.75;86.21
77325;BME280;66387;53.440;10.390;2023-04-25T02:06:22;99831.66;;;6.69;86.19
77325;BME280;66387;53.440;10.390;2023-04-25T02:08:47;99838.53;;;6.67;84.82
77325;BME280;66387;53.440;10.390;2023-04-25T02:11:13;99846.31;;;6.65;84.46
77325;BME280;66387;53.440;10.390;2023-04-25T02:13:38;99848.78;;;6.77;85.19
77325;BME280;66387;53.440;10.390;2023-04-25T02:16:03;99859.13;;;6.73;85.55
77325;BME280;66387;53.440;10.390;2023-04-25T02:18:29;99854.84;;;6.69;84.64
77325;BME280;66387;53.440;10.390;2023-04-25T02:20:54;99851.47;;;6.64;84.35
77325;BME280;66387;53.440;10.390;2023-04-25T02:23:19;99862.59;;;6.67;84.65
77325;BME280;66387;53.440;10.390;2023-04-25T02:25:45;99862.66;;;6.61;84.19
77325;BME280;66387;53.440;10.390;2023-04-25T02:28:10;99852.38;;;6.58;81.80
77325;BME280;66387;53.440;10.390;2023-04-25T02:30:36;99864.41;;;6.59;81.19
77325;BME280;66387;53.440;10.390;2023-04-25T02:33:01;99858.38;;;6.62;80.96
77325;BME280;66387;53.440;10.390;2023-04-25T02:35:27;99855.06;;;6.48;80.64
77325;BME280;66387;53.440;10.390;2023-04-25T02:37:52;99867.88;;;6.55;80.75
77325;BME280;66387;53.440;10.390;2023-04-25T02:40:17;99870.50;;;6.51;81.33
77325;BME280;66387;53.440;10.390;2023-04-25T02:42:43;99871.34;;;6.50;81.15
77325;BME280;66387;53.440;10.390;2023-04-25T02:45:10;99869.66;;;6.47;82.83
77325;BME280;66387;53.440;10.390;2023-04-25T02:47:36;99871.31;;;6.53;80.95
77325;BME280;66387;53.440;10.390;2023-04-25T02:50:01;99872.16;;;6.59;81.32
77325;BME280;66387;53.440;10.390;2023-04-25T02:52:26;99873.00;;;6.58;81.91
77325;BME280;66387;53.440;10.390;2023-04-25T02:54:52;99870.38;;;6.66;81.21
77325;BME280;66387;53.440;10.390;2023-04-25T02:57:17;99872.16;;;6.58;81.57
77325;BME280;66387;53.440;10.390;2023-04-25T02:59:42;99866.22;;;6.47;80.82
77325;BME280;66387;53.440;10.390;2023-04-25T03:02:07;99875.72;;;6.45;81.31
77325;BME280;66387;53.440;10.390;2023-04-25T03:04:33;99873.25;;;6.28;81.54
77325;BME280;66387;53.440;10.390;2023-04-25T03:06:58;99868.03;;;6.35;81.28
77325;BME280;66387;53.440;10.390;2023-04-25T03:09:24;99875.00;;;6.24;81.36
77325;BME280;66387;53.440;10.390;2023-04-25T03:11:49;99878.38;;;6.32;81.55
77325;BME280;66387;53.440;10.390;2023-04-25T03:14:14;99878.38;;;6.31;81.93
77325;BME280;66387;53.440;10.390;2023-04-25T03:16:40;99879.28;;;6.30;80.65
77325;BME280;66387;53.440;10.390;2023-04-25T03:19:05;99884.34;;;6.40;82.00
77325;BME280;66387;53.440;10.390;2023-04-25T03:21:32;99873.94;;;6.50;79.52
77325;BME280;66387;53.440;10.390;2023-04-25T03:23:59;99889.44;;;6.48;80.28
77325;BME280;66387;53.440;10.390;2023-04-25T03:26:24;99892.06;;;6.37;80.24
77325;BME280;66387;53.440;10.390;2023-04-25T03:28:50;99895.59;;;6.27;79.81
77325;BME280;66387;53.440;10.390;2023-04-25T03:31:15;99909.38;;;6.20;79.89
77325;BME280;66387;53.440;10.390;2023-04-25T03:33:40;99893.09;;;6.17;79.51
77325;BME280;66387;53.440;10.390;2023-04-25T03:36:06;99906.88;;;6.14;80.12
77325;BME280;66387;53.440;10.390;2023-04-25T03:38:31;99907.66;;;6.21;79.14
77325;BME280;66387;53.440;10.390;2023-04-25T03:40:57;99905.84;;;6.35;77.94
77325;BME280;66387;53.440;10.390;2023-04-25T03:43:22;99905.91;;;6.27;78.74
77325;BME280;66387;53.440;10.390;2023-04-25T03:45:47;99916.22;;;6.27;78.52
77325;BME280;66387;53.440;10.390;2023-04-25T03:48:13;99918.78;;;6.27;78.46
77325;BME280;66387;53.440;10.390;2023-04-25T03:50:38;99918.09;;;6.04;78.39
77325;BME280;66387;53.440;10.390;2023-04-25T03:53:03;99913.81;;;6.03;78.37
77325;BME280;66387;53.440;10.390;2023-04-25T03:55:28;99918.06;;;6.12;77.88
77325;BME280;66387;53.440;10.390;2023-04-25T03:57:54;99918.06;;;6.07;77.84
77325;BME280;66387;53.440;10.390;2023-04-25T04:00:19;99917.22;;;6.05;77.94
77325;BME280;66387;53.440;10.390;2023-04-25T04:02:44;99927.53;;;6.02;78.76
77325;BME280;66387;53.440;10.390;2023-04-25T04:05:11;99931.00;;;5.98;78.71
77325;BME280;66387;53.440;10.390;2023-04-25T04:07:36;99928.44;;;5.95;79.24
77325;BME280;66387;53.440;10.390;2023-04-25T04:10:11;99932.78;;;5.87;78.34
77325;BME280;66387;53.440;10.390;2023-04-25T04:12:37;99938.75;;;5.95;77.55
77325;BME280;66387;53.440;10.390;2023-04-25T04:15:04;99940.50;;;5.85;78.08
77325;BME280;66387;53.440;10.390;2023-04-25T04:17:30;99943.06;;;5.84;78.12
77325;BME280;66387;53.440;10.390;2023-04-25T04:19:55;99949.88;;;6.02;77.55
77325;BME280;66387;53.440;10.390;2023-04-25T04:22:21;99948.22;;;5.79;77.02
77325;BME280;66387;53.440;10.390;2023-04-25T04:24:46;99951.69;;;5.86;76.50
77325;BME280;66387;53.440;10.390;2023-04-25T04:27:12;99956.81;;;5.89;75.58
77325;BME280;66387;53.440;10.390;2023-04-25T04:29:38;99962.03;;;5.68;76.84
77325;BME280;66387;53.440;10.390;2023-04-25T04:32:03;99955.94;;;5.85;75.86
77325;BME280;66387;53.440;10.390;2023-04-25T04:34:28;99955.97;;;5.81;75.63
77325;BME280;66387;53.440;10.390;2023-04-25T04:36:54;99955.97;;;5.81;75.26
77325;BME280;66387;53.440;10.390;2023-04-25T04:39:20;99972.34;;;5.63;74.25
77325;BME280;66387;53.440;10.390;2023-04-25T04:41:45;99961.13;;;5.78;74.97
77325;BME280;66387;53.440;10.390;2023-04-25T04:44:10;99965.44;;;5.73;74.58
77325;BME280;66387;53.440;10.390;2023-04-25T04:46:35;99971.47;;;5.63;74.31
77325;BME280;66387;53.440;10.390;2023-04-25T04:49:09;99965.47;;;5.58;74.63
77325;BME280;66387;53.440;10.390;2023-04-25T04:51:35;99975.78;;;5.55;75.74
77325;BME280;66387;53.440;10.390;2023-04-25T04:54:02;99978.41;;;5.49;73.86
77325;BME280;66387;53.440;10.390;2023-04-25T04:56:31;99979.19;;;5.63;73.77
77325;BME280;66387;53.440;10.390;2023-04-25T04:58:57;99980.91;;;5.67;73.36
77325;BME280;66387;53.440;10.390;2023-04-25T05:01:23;99990.31;;;5.72;74.03
77325;BME280;66387;53.440;10.390;2023-04-25T05:03:49;99978.31;;;5.71;73.52
77325;BME280;66387;53.440;10.390;2023-04-25T05:06:14;99984.31;;;5.75;73.66
77325;BME280;66387;53.440;10.390;2023-04-25T05:08:40;99989.47;;;5.78;73.85
77325;BME280;66387;53.440;10.390;2023-04-25T05:11:05;99986.91;;;5.70;73.63
77325;BME280;66387;53.440;10.390;2023-04-25T05:13:30;99986.94;;;5.63;73.29
77325;BME280;66387;53.440;10.390;2023-04-25T05:15:56;99993.72;;;5.88;74.08
77325;BME280;66387;53.440;10.390;2023-04-25T05:18:21;99992.00;;;5.84;74.08
77325;BME280;66387;53.440;10.390;2023-04-25T05:20:46;99995.41;;;5.95;74.33
77325;BME280;66387;53.440;10.390;2023-04-25T05:23:11;99998.00;;;5.83;74.37
77325;BME280;66387;53.440;10.390;2023-04-25T05:25:37;99991.13;;;5.91;73.62
77325;BME280;66387;53.440;10.390;2023-04-25T05:28:02;99987.72;;;5.77;73.93
77325;BME280;66387;53.440;10.390;2023-04-25T05:30:27;100005.75;;;5.92;73.24
77325;BME280;66387;53.440;10.390;2023-04-25T05:32:53;99998.03;;;5.89;73.81
77325;BME280;66387;53.440;10.390;2023-04-25T05:35:18;99997.94;;;6.06;74.29
77325;BME280;66387;53.440;10.390;2023-04-25T05:37:43;99999.63;;;6.14;73.65
77325;BME280;66387;53.440;10.390;2023-04-25T05:40:09;100016.88;;;6.00;73.68
77325;BME280;66387;53.440;10.390;2023-04-25T05:42:34;100016.84;;;6.03;72.81
77325;BME280;66387;53.440;10.390;2023-04-25T05:45:00;100022.84;;;6.07;73.04
77325;BME280;66387;53.440;10.390;2023-04-25T05:47:26;100025.44;;;6.02;73.09
77325;BME280;66387;53.440;10.390;2023-04-25T05:49:51;100034.03;;;6.07;73.08
77325;BME280;66387;53.440;10.390;2023-04-25T05:52:16;100036.63;;;5.97;74.72
77325;BME280;66387;53.440;10.390;2023-04-25T05:54:42;100039.28;;;5.60;73.39
77325;BME280;66387;53.440;10.390;2023-04-25T05:57:07;100021.28;;;5.60;75.83
77325;BME280;66387;53.440;10.390;2023-04-25T05:59:32;100035.81;;;5.75;77.14
77325;BME280;66387;53.440;10.390;2023-04-25T06:01:57;100037.53;;;5.77;76.36
77325;BME280;66387;53.440;10.390;2023-04-25T06:04:23;100030.72;;;5.57;77.81
77325;BME280;66387;53.440;10.390;2023-04-25T06:06:48;100037.56;;;5.55;75.55
77325;BME280;66387;53.440;10.390;2023-04-25T06:09:13;100039.31;;;5.53;75.33
77325;BME280;66387;53.440;10.390;2023-04-25T06:11:39;100047.84;;;5.65;76.42
77325;BME280;66387;53.440;10.390;2023-04-25T06:14:05;100047.81;;;5.77;76.42
77325;BME280;66387;53.440;10.390;2023-04-25T06:16:30;100049.53;;;5.89;75.40
77325;BME280;66387;53.440;10.390;2023-04-25T06:18:56;100049.47;;;6.10;75.54
77325;BME280;66387;53.440;10.390;2023-04-25T06:21:21;100051.25;;;5.93;75.83
77325;BME280;66387;53.440;10.390;2023-04-25T06:23:46;100047.75;;;6.06;75.97
77325;BME280;66387;53.440;10.390;2023-04-25T06:26:12;100042.63;;;6.02;76.54
77325;BME280;66387;53.440;10.390;2023-04-25T06:28:37;100049.50;;;5.98;75.32
77325;BME280;66387;53.440;10.390;2023-04-25T06:31:03;100051.16;;;6.17;75.51
77325;BME280;66387;53.440;10.390;2023-04-25T06:33:28;100049.47;;;6.10;74.53
77325;BME280;66387;53.440;10.390;2023-04-25T06:35:54;100039.06;;;6.28;74.78
77325;BME280;66387;53.440;10.390;2023-04-25T06:38:19;100044.22;;;6.31;73.16
77325;BME280;66387;53.440;10.390;2023-04-25T06:40:45;100042.47;;;6.36;73.21
77325;BME280;66387;53.440;10.390;2023-04-25T06:43:10;100049.28;;;6.47;71.80
77325;BME280;66387;53.440;10.390;2023-04-25T06:45:35;100045.88;;;6.41;72.69
77325;BME280;66387;53.440;10.390;2023-04-25T06:48:01;100052.72;;;6.46;73.04
77325;BME280;66387;53.440;10.390;2023-04-25T06:50:26;100063.91;;;6.41;72.46
77325;BME280;66387;53.440;10.390;2023-04-25T06:52:51;100056.22;;;6.37;72.24
77325;BME280;66387;53.440;10.390;2023-04-25T06:55:17;100066.53;;;6.35;73.07
77325;BME280;66387;53.440;10.390;2023-04-25T06:57:42;100062.19;;;6.42;74.20
77325;BME280;66387;53.440;10.390;2023-04-25T07:00:08;100068.25;;;6.30;73.61
77325;BME280;66387;53.440;10.390;2023-04-25T07:02:34;100071.75;;;6.22;73.31
77325;BME280;66387;53.440;10.390;2023-04-25T07:05:00;100067.41;;;6.27;72.76
77325;BME280;66387;53.440;10.390;2023-04-25T07:07:26;100067.41;;;6.31;72.37
77325;BME280;66387;53.440;10.390;2023-04-25T07:09:51;100068.19;;;6.52;73.38
77325;BME280;66387;53.440;10.390;2023-04-25T07:12:16;100081.06;;;6.52;72.83
77325;BME280;66387;53.440;10.390;2023-04-25T07:14:42;100081.00;;;6.61;72.82
77325;BME280;66387;53.440;10.390;2023-04-25T07:17:07;100069.81;;;6.66;71.96
77325;BME280;66387;53.440;10.390;2023-04-25T07:19:32;100074.94;;;6.74;71.06
77325;BME280;66387;53.440;10.390;2023-04-25T07:21:58;100077.53;;;6.68;71.53
77325;BME280;66387;53.440;10.390;2023-04-25T07:24:23;100080.91;;;6.74;71.77
77325;BME280;66387;53.440;10.390;2023-04-25T07:26:49;100077.47;;;6.75;72.21
77325;BME280;66387;53.440;10.390;2023-04-25T07:29:14;100092.13;;;6.72;70.34
77325;BME280;66387;53.440;10.390;2023-04-25T07:31:39;100085.16;;;6.81;71.55
77325;BME280;66387;53.440;10.390;2023-04-25T07:34:04;100080.06;;;6.77;69.54
77325;BME280;66387;53.440;10.390;2023-04-25T07:36:31;100079.25;;;6.69;71.17
77325;BME280;66387;53.440;10.390;2023-04-25T07:38:56;100097.25;;;6.81;71.20
77325;BME280;66387;53.440;10.390;2023-04-25T07:41:21;100104.84;;;6.99;70.93
77325;BME280;66387;53.440;10.390;2023-04-25T07:43:46;100099.00;;;6.73;69.33
77325;BME280;66387;53.440;10.390;2023-04-25T07:46:12;100086.00;;;6.86;70.45
77325;BME280;66387;53.440;10.390;2023-04-25T07:48:37;100104.09;;;6.82;70.46
77325;BME280;66387;53.440;10.390;2023-04-25T07:51:02;100103.16;;;6.95;70.43
77325;BME280;66387;53.440;10.390;2023-04-25T07:53:29;100100.75;;;6.65;71.05
77325;BME280;66387;53.440;10.390;2023-04-25T07:55:55;100098.91;;;6.85;70.04
77325;BME280;66387;53.440;10.390;2023-04-25T07:58:20;100104.13;;;6.76;69.16
77325;BME280;66387;53.440;10.390;2023-04-25T08:00:47;100100.72;;;6.71;70.05
77325;BME280;66387;53.440;10.390;2023-04-25T08:03:13;100109.25;;;6.83;70.11
77325;BME280;66387;53.440;10.390;2023-04-25T08:05:38;100117.00;;;6.79;70.16
77325;BME280;66387;53.440;10.390;2023-04-25T08:08:03;100106.66;;;6.83;70.51
77325;BME280;66387;53.440;10.390;2023-04-25T08:10:31;100095.53;;;6.77;70.97
77325;BME280;66387;53.440;10.390;2023-04-25T08:12:56;100116.00;;;7.00;70.42
77325;BME280;66387;53.440;10.390;2023-04-25T08:15:21;100122.84;;;7.08;70.56
77325;BME280;66387;53.440;10.390;2023-04-25T08:17:47;100121.97;;;7.14;72.54
77325;BME280;66387;53.440;10.390;2023-04-25T08:20:12;100104.03;;;6.94;70.48
77325;BME280;66387;53.440;10.390;2023-04-25T08:22:37;100124.31;;;7.39;69.55
77325;BME280;66387;53.440;10.390;2023-04-25T08:25:03;100110.38;;;7.60;68.83
77325;BME280;66387;53.440;10.390;2023-04-25T08:27:28;100115.53;;;7.59;67.75
77325;BME280;66387;53.440;10.390;2023-04-25T08:29:54;100120.66;;;7.68;68.25
77325;BME280;66387;53.440;10.390;2023-04-25T08:32:19;100130.88;;;7.77;66.72
77325;BME280;66387;53.440;10.390;2023-04-25T08:34:46;100126.47;;;7.89;67.58
77325;BME280;66387;53.440;10.390;2023-04-25T08:37:12;100122.97;;;7.92;67.36
77325;BME280;66387;53.440;10.390;2023-04-25T08:39:37;100128.72;;;8.18;66.25
77325;BME280;66387;53.440;10.390;2023-04-25T08:42:05;100124.59;;;8.02;64.83
77325;BME280;66387;53.440;10.390;2023-04-25T08:44:33;100140.38;;;7.73;65.30
77325;BME280;66387;53.440;10.390;2023-04-25T08:47:02;100143.00;;;7.72;64.75
77325;BME280;66387;53.440;10.390;2023-04-25T08:49:27;100143.00;;;7.69;64.26
77325;BME280;66387;53.440;10.390;2023-04-25T08:51:56;100144.63;;;7.82;64.20
77325;BME280;66387;53.440;10.390;2023-04-25T08:54:26;100141.19;;;7.83;64.81
77325;BME280;66387;53.440;10.390;2023-04-25T08:56:54;100144.59;;;7.85;63.62
77325;BME280;66387;53.440;10.390;2023-04-25T08:59:22;100148.75;;;7.98;62.44
77325;BME280;66387;53.440;10.390;2023-04-25T09:01:49;100157.41;;;7.96;61.38
77325;BME280;66387;53.440;10.390;2023-04-25T09:04:14;100165.44;;;7.67;60.96
77325;BME280;66387;53.440;10.390;2023-04-25T09:06:40;100165.22;;;7.88;61.24
77325;BME280;66387;53.440;10.390;2023-04-25T09:09:06;100171.06;;;8.08;61.63
77325;BME280;66387;53.440;10.390;2023-04-25T09:11:33;100174.81;;;7.77;61.47
77325;BME280;66387;53.440;10.390;2023-04-25T09:14:18;100166.13;;;7.85;61.11
77325;BME280;66387;53.440;10.390;2023-04-25T09:19:29;100182.22;;;8.15;61.50
77325;BME280;66387;53.440;10.390;2023-04-25T09:21:56;100182.13;;;8.22;60.67
77325;BME280;66387;53.440;10.390;2023-04-25T09:24:41;100184.03;;;8.04;60.11
77325;BME280;66387;53.440;10.390;2023-04-25T09:27:13;100189.41;;;7.82;61.13
77325;BME280;66387;53.440;10.390;2023-04-25T09:29:42;100197.22;;;7.75;61.87
77325;BME280;66387;53.440;10.390;2023-04-25T09:32:21;100204.91;;;7.81;62.39
77325;BME280;66387;53.440;10.390;2023-04-25T09:34:52;100210.97;;;7.78;63.28
77325;BME280;66387;53.440;10.390;2023-04-25T09:37:26;100221.44;;;7.63;64.83
77325;BME280;66387;53.440;10.390;2023-04-25T09:39:56;100218.88;;;7.59;65.30
77325;BME280;66387;53.440;10.390;2023-04-25T09:42:23;100217.22;;;7.50;64.38
77325;BME280;66387;53.440;10.390;2023-04-25T09:44:51;100232.03;;;7.21;63.26
77325;BME280;66387;53.440;10.390;2023-04-25T09:47:17;100240.72;;;7.09;65.14
77325;BME280;66387;53.440;10.390;2023-04-25T09:49:43;100233.91;;;6.95;65.52
77325;BME280;66387;53.440;10.390;2023-04-25T09:52:13;100238.19;;;6.94;65.73
77325;BME280;66387;53.440;10.390;2023-04-25T09:54:38;100247.63;;;7.01;65.85
77325;BME280;66387;53.440;10.390;2023-04-25T09:59:39;100260.66;;;6.74;67.98
77325;BME280;66387;53.440;10.390;2023-04-25T10:02:07;100250.88;;;7.33;68.12
77325;BME280;66387;53.440;10.390;2023-04-25T10:04:34;100247.34;;;7.50;66.16
77325;BME280;66387;53.440;10.390;2023-04-25T10:07:00;100253.19;;;7.73;66.12
77325;BME280;66387;53.440;10.390;2023-04-25T10:09:27;100243.25;;;8.31;64.67
77325;BME280;66387;53.440;10.390;2023-04-25T10:11:56;100252.38;;;8.67;62.98
77325;BME280;66387;53.440;10.390;2023-04-25T10:14:23;100265.44;;;8.53;63.36
77325;BME280;66387;53.440;10.390;2023-04-25T10:16:49;100267.50;;;8.19;65.11
77325;BME280;66387;53.440;10.390;2023-04-25T10:19:15;100256.47;;;7.96;70.00
77325;BME280;66387;53.440;10.390;2023-04-25T10:21:47;100259.16;;;7.84;69.83
77325;BME280;66387;53.440;10.390;2023-04-25T10:24:14;100264.22;;;7.96;68.35
77325;BME280;66387;53.440;10.390;2023-04-25T10:26:40;100251.88;;;8.27;67.27
77325;BME280;66387;53.440;10.390;2023-04-25T10:29:05;100259.44;;;8.50;67.27
77325;BME280;66387;53.440;10.390;2023-04-25T10:31:31;100250.16;;;8.33;64.15
77325;BME280;66387;53.440;10.390;2023-04-25T10:33:57;100254.97;;;8.65;63.32
77325;BME280;66387;53.440;10.390;2023-04-25T10:36:23;100268.88;;;8.54;61.29
77325;BME280;66387;53.440;10.390;2023-04-25T10:38:50;100263.16;;;9.02;59.86
77325;BME280;66387;53.440;10.390;2023-04-25T10:41:18;100269.81;;;9.81;58.86
77325;BME280;66387;53.440;10.390;2023-04-25T10:43:45;100250.84;;;9.79;59.15
77325;BME280;66387;53.440;10.390;2023-04-25T10:46:23;100250.13;;;9.69;58.82
77325;BME280;66387;53.440;10.390;2023-04-25T10:48:51;100258.47;;;9.88;58.33
77325;BME280;66387;53.440;10.390;2023-04-25T10:56:22;100257.88;;;10.26;56.39
77325;BME280;66387;53.440;10.390;2023-04-25T10:58:48;100261.34;;;9.70;57.51
77325;BME280;66387;53.440;10.390;2023-04-25T11:01:15;100265.31;;;9.94;53.51
77325;BME280;66387;53.440;10.390;2023-04-25T11:03:44;100263.59;;;10.45;52.56
77325;BME280;66387;53.440;10.390;2023-04-25T11:06:26;100255.34;;;10.67;48.10
77325;BME280;66387;53.440;10.390;2023-04-25T11:08:53;100262.97;;;10.78;48.61
77325;BME280;66387;53.440;10.390;2023-04-25T11:11:19;100256.31;;;10.13;48.99
77325;BME280;66387;53.440;10.390;2023-04-25T11:13:49;100254.91;;;9.95;50.78
77325;BME280;66387;53.440;10.390;2023-04-25T11:16:15;100267.34;;;9.73;52.90
77325;BME280;66387;53.440;10.390;2023-04-25T11:18:41;100251.03;;;9.65;54.40
77325;BME280;66387;53.440;10.390;2023-04-25T11:21:07;100255.16;;;9.20;54.97
77325;BME280;66387;53.440;10.390;2023-04-25T11:23:32;100266.78;;;9.53;56.04
77325;BME280;66387;53.440;10.390;2023-04-25T11:25:57;100273.91;;;9.38;55.38
77325;BME280;66387;53.440;10.390;2023-04-25T11:28:25;100262.84;;;9.86;54.04
77325;BME280;66387;53.440;10.390;2023-04-25T11:30:51;100268.84;;;9.88;53.80
77325;BME280;66387;53.440;10.390;2023-04-25T11:33:17;100267.91;;;9.35;56.08
77325;BME280;66387;53.440;10.390;2023-04-25T11:35:42;100282.06;;;9.10;57.57
77325;BME280;66387;53.440;10.390;2023-04-25T11:38:07;100276.94;;;9.67;56.30
77325;BME280;66387;53.440;10.390;2023-04-25T11:40:33;100289.00;;;9.71;55.91
77325;BME280;66387;53.440;10.390;2023-04-25T11:43:00;100285.13;;;9.96;55.48
77325;BME280;66387;53.440;10.390;2023-04-25T11:45:26;100295.09;;;9.68;54.24
77325;BME280;66387;53.440;10.390;2023-04-25T11:47:51;100277.81;;;9.66;54.57
77325;BME280;66387;53.440;10.390;2023-04-25T11:50:17;100285.44;;;10.31;53.91
77325;BME280;66387;53.440;10.390;2023-04-25T11:52:47;100285.53;;;10.74;53.13
77325;BME280;66387;53.440;10.390;2023-04-25T11:55:15;100301.84;;;11.24;52.50
77325;BME280;66387;53.440;10.390;2023-04-25T11:57:41;100297.41;;;11.69;50.38
77325;BME280;66387;53.440;10.390;2023-04-25T12:00:09;100291.50;;;11.99;48.35
77325;BME280;66387;53.440;10.390;2023-04-25T12:02:36;100301.53;;;12.14;49.13
77325;BME280;66387;53.440;10.390;2023-04-25T12:05:01;100294.84;;;11.27;51.18
77325;BME280;66387;53.440;10.390;2023-04-25T12:07:31;100297.56;;;10.78;51.58
77325;BME280;66387;53.440;10.390;2023-04-25T12:09:56;100342.19;;;9.96;53.49
77325;BME280;66387;53.440;10.390;2023-04-25T12:12:22;100348.09;;;8.70;61.68
77325;BME280;66387;53.440;10.390;2023-04-25T12:14:51;100349.44;;;8.07;62.14
77325;BME280;66387;53.440;10.390;2023-04-25T12:17:17;100351.41;;;7.76;60.17
77325;BME280;66387;53.440;10.390;2023-04-25T12:19:42;100352.38;;;7.52;58.42
77325;BME280;66387;53.440;10.390;2023-04-25T12:22:23;100350.47;;;7.81;58.93
77325;BME280;66387;53.440;10.390;2023-04-25T12:24:49;100354.66;;;7.99;57.52
77325;BME280;66387;53.440;10.390;2023-04-25T12:27:16;100370.03;;;8.22;57.97
77325;BME280;66387;53.440;10.390;2023-04-25T12:29:50;100353.22;;;8.71;57.88
77325;BME280;66387;53.440;10.390;2023-04-25T12:32:16;100350.38;;;8.99;54.61
77325;BME280;66387;53.440;10.390;2023-04-25T12:34:42;100350.03;;;9.27;54.41
77325;BME280;66387;53.440;10.390;2023-04-25T12:37:07;100334.72;;;9.73;54.15
77325;BME280;66387;53.440;10.390;2023-04-25T12:39:32;100338.59;;;10.58;53.51
77325;BME280;66387;53.440;10.390;2023-04-25T12:41:57;100331.22;;;10.85;51.94
77325;BME280;66387;53.440;10.390;2023-04-25T12:44:24;100317.28;;;11.31;49.54
77325;BME280;66387;53.440;10.390;2023-04-25T12:46:49;100327.28;;;11.50;50.90
77325;BME280;66387;53.440;10.390;2023-04-25T12:49:15;100334.66;;;11.71;47.99
77325;BME280;66387;53.440;10.390;2023-04-25T12:51:40;100312.94;;;11.32;46.79
77325;BME280;66387;53.440;10.390;2023-04-25T12:54:06;100311.50;;;12.33;45.51
77325;BME280;66387;53.440;10.390;2023-04-25T12:56:33;100327.84;;;12.02;43.69
77325;BME280;66387;53.440;10.390;2023-04-25T12:58:59;100322.19;;;11.85;44.53